Time;durP1;ratioP1;P1;durP2;ratioP2;P2;SDS_P1;SDS_P2;PMS_P1;PMS_P2;Temp;Humidity;BMP_temperature;BMP_pressure;BME280_temperature;BME280_humidity;BME280_pressure;Samples;Min_cycle;Max_cycle;Signal;HPM_P1;HPM_P2
2024/01/06 00:00:49;;;;;;;4.22;3.30;;;;;;;11.37;79.37;101484.25;5031007;28;20483;-86
2024/01/06 00:03:15;;;;;;;3.95;3.28;;;;;;;11.33;79.21;101477.03;5018052;28;20037;-86
2024/01/06 00:05:40;;;;;;;4.25;3.13;;;;;;;11.56;79.32;101518.59;5003418;28;20036;-87
2024/01/06 00:08:06;;;;;;;4.43;3.28;;;;;;;11.67;79.37;101536.66;5020769;28;20045;-87
2024/01/06 00:10:32;;;;;;;4.80;3.30;;;;;;;11.60;78.95;101510.13;5031844;28;20029;-87
2024/01/06 00:12:58;;;;;;;3.42;3.00;;;;;;;11.42;79.01;101488.06;5024006;28;20023;-87
2024/01/06 00:15:24;;;;;;;4.57;3.10;;;;;;;11.50;79.04;101502.50;5031283;28;20061;-87
2024/01/06 00:17:49;;;;;;;3.65;3.13;;;;;;;11.60;79.13;101512.75;5025900;28;20115;-87
2024/01/06 00:20:15;;;;;;;4.45;3.35;;;;;;;11.46;79.27;101502.22;5013041;28;20120;-88
2024/01/06 00:22:42;;;;;;;3.65;2.88;;;;;;;11.70;79.21;101523.75;5030149;28;20090;-86
2024/01/06 00:25:46;;;;;;;3.90;3.20;;;;;;;11.53;79.28;101497.44;5032350;28;20100;-86
2024/01/06 00:28:22;;;;;;;3.33;2.95;;;;;;;11.76;79.18;101522.41;5019003;28;20115;-85
2024/01/06 00:30:48;;;;;;;3.53;2.88;;;;;;;11.54;79.04;101480.06;5029774;28;20029;-86
2024/01/06 00:33:13;;;;;;;3.83;3.25;;;;;;;11.76;79.14;101535.50;5030883;28;20057;-87
2024/01/06 00:35:39;;;;;;;3.72;3.00;;;;;;;11.46;79.22;101465.63;5035805;28;20101;-86
2024/01/06 00:38:05;;;;;;;3.30;3.00;;;;;;;11.68;79.25;101502.72;5032349;28;20048;-87
2024/01/06 00:40:32;;;;;;;3.67;2.97;;;;;;;11.72;79.03;101506.44;5032095;28;20029;-87
2024/01/06 00:43:00;;;;;;;3.85;3.45;;;;;;;11.48;79.23;101466.63;5030218;28;20141;-87
2024/01/06 00:45:25;;;;;;;4.47;3.33;;;;;;;11.44;79.73;101456.78;5013155;28;20030;-87
2024/01/06 00:47:51;;;;;;;4.40;3.40;;;;;;;11.66;79.17;101498.22;5021813;28;20029;-86
2024/01/06 00:50:20;;;;;;;3.60;3.05;;;;;;;11.75;79.03;101510.16;5020700;28;20045;-86
2024/01/06 00:52:45;;;;;;;4.47;3.20;;;;;;;11.70;78.90;101503.72;5030446;28;20033;-87
2024/01/06 00:55:11;;;;;;;4.55;3.33;;;;;;;11.59;79.10;101484.75;5029017;28;20086;-85
2024/01/06 00:57:37;;;;;;;3.45;3.05;;;;;;;11.54;79.55;101474.84;5024952;28;20038;-86
2024/01/06 01:00:05;;;;;;;3.45;3.10;;;;;;;11.20;79.44;101412.63;5029213;28;20072;-86
2024/01/06 01:02:33;;;;;;;3.75;3.15;;;;;;;11.05;79.43;101391.66;5031025;28;20033;-86
2024/01/06 01:04:59;;;;;;;3.15;2.80;;;;;;;11.12;79.32;101391.22;5028110;28;20029;-85
2024/01/06 01:07:27;;;;;;;3.47;3.03;;;;;;;11.36;79.59;101425.81;5024653;28;20447;-86
2024/01/06 01:09:52;;;;;;;4.47;3.40;;;;;;;11.24;79.46;101413.69;5019897;28;20422;-86
2024/01/06 01:12:18;;;;;;;3.72;3.10;;;;;;;11.46;79.37;101449.94;5014180;28;20030;-88
2024/01/06 01:14:44;;;;;;;5.18;4.07;;;;;;;11.60;79.21;101467.38;5026899;28;20537;-88
2024/01/06 01:17:10;;;;;;;5.40;4.10;;;;;;;11.48;79.37;101451.81;5014855;28;20029;-87
2024/01/06 01:19:36;;;;;;;5.88;4.80;;;;;;;11.48;79.25;101448.31;5030494;28;20412;-87
2024/01/06 01:22:02;;;;;;;6.50;5.15;;;;;;;11.55;79.29;101461.81;5020005;28;20026;-86
2024/01/06 01:24:27;;;;;;;6.68;5.43;;;;;;;11.56;79.62;101468.88;5015084;28;20036;-87
2024/01/06 01:26:53;;;;;;;6.10;4.80;;;;;;;11.33;79.24;101419.50;5018521;28;20099;-87
2024/01/06 01:29:20;;;;;;;8.93;5.22;;;;;;;11.61;79.35;101474.38;5030031;28;20053;-87
2024/01/06 01:31:55;;;;;;;6.35;4.65;;;;;;;11.44;79.24;101434.13;5027428;28;20025;-86
2024/01/06 01:34:21;;;;;;;6.90;5.13;;;;;;;11.12;79.43;101372.03;5033598;28;20044;-88
2024/01/06 01:36:47;;;;;;;5.22;4.05;;;;;;;11.46;79.43;101432.50;5017780;28;20026;-88
2024/01/06 01:39:12;;;;;;;5.35;4.15;;;;;;;11.39;79.04;101410.31;5044806;28;20034;-88
2024/01/06 01:41:39;;;;;;;6.18;4.28;;;;;;;11.41;79.48;101419.16;5011921;28;20079;-87
2024/01/06 01:44:05;;;;;;;5.55;4.28;;;;;;;11.56;79.43;101442.72;5012422;28;20396;-88
2024/01/06 01:46:31;;;;;;;5.13;4.22;;;;;;;11.39;79.26;101396.34;5028828;28;20136;-88
2024/01/06 01:48:57;;;;;;;6.78;4.25;;;;;;;11.55;79.46;101434.78;5013612;28;20136;-88
2024/01/06 01:51:27;;;;;;;5.53;4.22;;;;;;;11.50;79.60;101424.03;5029868;28;20041;-88
2024/01/06 01:53:53;;;;;;;5.60;4.30;;;;;;;11.47;79.21;101407.25;5026626;28;20403;-88
2024/01/06 01:56:19;;;;;;;5.22;4.10;;;;;;;11.45;79.47;101403.63;5005547;28;20498;-88
2024/01/06 01:58:46;;;;;;;4.65;3.80;;;;;;;11.65;79.17;101442.38;5010707;28;20076;-88
2024/01/06 02:01:11;;;;;;;;;;;;;;;11.66;79.35;101438.94;5027316;28;20036;-88
2024/01/06 02:03:38;;;;;;;4.20;3.53;;;;;;;11.52;79.65;101414.56;5016014;28;20334;-88
2024/01/06 02:06:04;;;;;;;4.28;3.67;;;;;;;11.34;79.39;101384.69;5018297;28;20030;-87
2024/01/06 02:08:29;;;;;;;4.95;3.97;;;;;;;11.25;79.86;101360.59;5012845;28;20506;-88
2024/01/06 02:10:56;;;;;;;4.00;3.45;;;;;;;11.50;79.61;101408.34;5017680;28;20478;-87
2024/01/06 02:13:22;;;;;;;4.15;3.70;;;;;;;11.55;79.65;101416.47;5030990;28;20013;-88
2024/01/06 02:15:48;;;;;;;4.63;3.70;;;;;;;11.44;79.51;101397.50;5016530;28;20058;-88
2024/01/06 02:18:14;;;;;;;5.05;3.40;;;;;;;11.66;78.96;101424.97;5029841;28;20471;-88
2024/01/06 02:20:44;;;;;;;3.75;3.30;;;;;;;11.54;79.54;101417.28;5017028;28;20037;-86
2024/01/06 02:23:09;;;;;;;3.90;3.22;;;;;;;11.56;79.58;101415.69;5021162;28;20026;-87
2024/01/06 02:25:35;;;;;;;4.57;3.58;;;;;;;11.60;79.37;101418.56;5024237;28;20446;-88
2024/01/06 02:28:02;;;;;;;4.50;3.63;;;;;;;11.15;79.30;101338.22;5023539;28;20671;-87
2024/01/06 02:30:27;;;;;;;4.32;3.40;;;;;;;11.52;79.67;101406.72;5029062;28;20047;-88
2024/01/06 02:32:53;;;;;;;4.43;3.80;;;;;;;11.16;79.25;101346.16;5030172;28;20029;-88
2024/01/06 02:35:20;;;;;;;4.40;3.55;;;;;;;11.17;79.42;101347.94;5021829;28;20038;-88
2024/01/06 02:37:46;;;;;;;3.97;3.25;;;;;;;11.34;79.78;101379.47;5028560;28;20025;-86
2024/01/06 02:40:13;;;;;;;5.05;3.60;;;;;;;11.60;79.22;101408.09;5013394;28;20045;-88
2024/01/06 02:42:39;;;;;;;4.38;3.72;;;;;;;11.23;79.22;101342.22;5023810;28;20050;-88
2024/01/06 02:45:05;;;;;;;3.97;3.28;;;;;;;11.44;79.48;101383.53;5022564;28;20038;-88
2024/01/06 02:47:30;;;;;;;4.25;3.53;;;;;;;11.02;79.40;101315.66;4995962;28;20038;-88
2024/01/06 02:49:56;;;;;;;5.60;3.60;;;;;;;11.51;79.40;101399.69;5010088;28;20030;-88
2024/01/06 02:52:22;;;;;;;4.78;3.65;;;;;;;11.12;79.08;101325.88;5027434;28;20526;-88
2024/01/06 02:54:48;;;;;;;3.88;3.17;;;;;;;11.14;79.62;101331.22;5019029;28;20033;-87
2024/01/06 02:57:14;;;;;;;4.65;3.47;;;;;;;11.28;79.42;101356.47;5026273;28;20062;-86
2024/01/06 02:59:39;;;;;;;3.95;3.42;;;;;;;11.09;79.28;101330.00;5025870;28;20030;-87
2024/01/06 03:02:05;;;;;;;4.32;3.40;;;;;;;11.25;79.17;101358.00;5025921;28;20033;-87
2024/01/06 03:04:34;;;;;;;5.25;3.30;;;;;;;11.31;79.36;101363.59;5019642;28;20133;-87
2024/01/06 03:07:00;;;;;;;4.03;3.17;;;;;;;11.46;79.39;101389.78;5021584;28;20556;-87
2024/01/06 03:09:25;;;;;;;5.47;3.53;;;;;;;11.46;79.59;101403.75;5028391;28;20076;-87
2024/01/06 03:11:51;;;;;;;4.13;3.40;;;;;;;11.36;79.40;101383.97;5021875;28;20090;-87
2024/01/06 03:14:17;;;;;;;3.97;3.40;;;;;;;11.17;79.56;101341.84;5036025;28;20084;-87
2024/01/06 03:16:42;;;;;;;4.28;3.38;;;;;;;11.12;79.80;101341.56;5028014;28;20040;-87
2024/01/06 03:19:08;;;;;;;4.30;3.60;;;;;;;11.49;79.41;101396.06;5029691;28;20498;-88
2024/01/06 03:21:34;;;;;;;3.95;3.50;;;;;;;11.45;79.45;101377.50;5009272;28;20038;-87
2024/01/06 03:24:01;;;;;;;3.15;2.85;;;;;;;11.30;79.32;101357.47;5024001;28;20091;-87
2024/01/06 03:26:26;;;;;;;4.15;3.13;;;;;;;11.43;79.62;101376.50;5000862;28;20443;-89
2024/01/06 03:28:54;;;;;;;4.72;3.40;;;;;;;10.93;79.42;101289.88;5023122;28;20044;-88
2024/01/06 03:31:22;;;;;;;4.65;3.35;;;;;;;11.16;79.49;101319.13;5027330;28;20407;-88
2024/01/06 03:33:48;;;;;;;3.60;3.00;;;;;;;10.87;79.46;101262.47;5008731;28;20061;-87
2024/01/06 03:36:16;;;;;;;3.95;3.30;;;;;;;11.01;79.32;101295.59;5016153;28;20451;-88
2024/01/06 03:38:42;;;;;;;4.05;3.30;;;;;;;11.21;79.65;101329.03;5011704;28;20025;-88
2024/01/06 03:41:08;;;;;;;3.38;3.08;;;;;;;11.05;79.18;101300.19;5016971;28;20033;-87
2024/01/06 03:43:33;;;;;;;3.85;3.28;;;;;;;11.44;79.75;101360.91;5019312;28;20041;-87
2024/01/06 03:46:17;;;;;;;3.10;2.80;;;;;;;11.12;79.36;101304.06;5112893;27;20450;-87
2024/01/06 03:48:43;;;;;;;4.53;3.33;;;;;;;11.16;79.61;101333.09;5085150;28;20038;-88
2024/01/06 03:51:10;;;;;;;3.58;3.00;;;;;;;11.06;79.27;101306.31;5068588;28;20040;-88
2024/01/06 03:53:36;;;;;;;4.03;3.30;;;;;;;10.99;79.69;101290.25;5061983;28;20040;-88
2024/01/06 03:56:03;;;;;;;3.25;2.95;;;;;;;11.02;79.71;101299.09;5098516;28;20032;-87
2024/01/06 03:58:29;;;;;;;4.13;3.22;;;;;;;11.43;79.55;101371.25;5084598;28;20027;-88
2024/01/06 04:00:54;;;;;;;3.80;3.30;;;;;;;11.16;79.37;101322.63;5067012;28;20020;-88
2024/01/06 04:03:20;;;;;;;3.83;3.30;;;;;;;11.45;79.48;101356.56;5073088;28;20036;-87
2024/01/06 04:05:46;;;;;;;3.78;3.10;;;;;;;11.09;79.43;101306.47;5077710;28;20067;-88
2024/01/06 04:08:12;;;;;;;5.22;3.35;;;;;;;11.08;79.42;101315.16;5106024;28;20028;-88
2024/01/06 04:10:38;;;;;;;3.60;3.10;;;;;;;11.08;79.26;101309.91;5079217;28;20027;-86
2024/01/06 04:13:04;;;;;;;3.92;3.30;;;;;;;11.14;79.24;101313.81;5070574;28;20525;-86
2024/01/06 04:15:32;;;;;;;3.42;3.03;;;;;;;11.34;79.57;101354.19;5068723;28;20459;-86
2024/01/06 04:18:02;;;;;;;4.32;3.17;;;;;;;11.45;79.23;101381.03;5085353;28;20460;-88
2024/01/06 04:20:28;;;;;;;3.92;3.13;;;;;;;11.43;79.58;101382.66;5076728;28;20028;-86
2024/01/06 04:22:54;;;;;;;4.05;3.30;;;;;;;11.12;79.17;101327.59;5098283;28;20022;-86
2024/01/06 04:25:19;;;;;;;4.43;3.25;;;;;;;11.33;79.50;101351.53;5079198;28;20035;-89
2024/01/06 04:27:46;;;;;;;4.53;3.20;;;;;;;11.24;79.25;101337.88;5097638;28;20024;-88
2024/01/06 04:30:13;;;;;;;5.50;3.42;;;;;;;11.08;79.45;101326.50;5068830;28;20446;-88
2024/01/06 04:32:39;;;;;;;3.78;2.92;;;;;;;11.45;79.30;101386.25;5087277;28;20027;-87
2024/01/06 04:35:05;;;;;;;3.90;3.20;;;;;;;11.16;79.30;101333.09;5082260;28;20032;-89
2024/01/06 04:37:30;;;;;;;3.10;2.80;;;;;;;11.43;79.29;101385.25;5069650;28;20036;-87
2024/01/06 04:39:57;;;;;;;3.90;3.15;;;;;;;11.21;79.28;101354.28;5078216;28;20042;-87
2024/01/06 04:42:23;;;;;;;4.35;3.25;;;;;;;11.20;79.27;101340.31;5069530;28;20040;-88
2024/01/06 04:44:49;;;;;;;4.95;3.53;;;;;;;11.28;79.21;101360.78;5094409;28;20040;-88
2024/01/06 04:47:15;;;;;;;4.72;3.40;;;;;;;11.14;79.25;101341.66;5036906;28;20048;-88
2024/01/06 04:49:41;;;;;;;4.43;3.42;;;;;;;11.13;79.31;101338.16;5057994;28;20028;-88
2024/01/06 04:52:07;;;;;;;3.80;3.05;;;;;;;11.11;79.08;101323.16;5041760;28;20494;-88
2024/01/06 04:54:32;;;;;;;3.10;2.80;;;;;;;11.20;79.57;101342.94;5052983;28;20135;-88
2024/01/06 04:56:59;;;;;;;4.13;3.15;;;;;;;11.29;79.34;101362.59;5066707;28;20492;-89
2024/01/06 04:59:25;;;;;;;4.65;3.17;;;;;;;10.89;79.10;101298.34;5025972;28;20123;-87
2024/01/06 05:01:51;;;;;;;4.00;3.25;;;;;;;11.16;79.59;101351.41;5058786;28;20139;-87
2024/01/06 05:04:17;;;;;;;4.70;3.45;;;;;;;11.21;79.32;101360.41;5035997;28;20167;-87
2024/01/06 05:06:44;;;;;;;3.38;3.00;;;;;;;11.09;79.14;101335.22;5023317;28;20441;-86
2024/01/06 05:09:09;;;;;;;3.78;3.35;;;;;;;11.15;79.49;101354.84;5042355;28;20047;-86
2024/01/06 05:11:35;;;;;;;3.95;2.97;;;;;;;11.23;79.28;101357.00;5042780;28;20033;-86
2024/01/06 05:14:01;;;;;;;3.85;3.00;;;;;;;11.17;79.30;101339.22;5034513;28;20040;-87
2024/01/06 05:16:27;;;;;;;3.70;3.28;;;;;;;11.17;79.24;101342.72;5066607;28;20033;-87
2024/01/06 05:18:53;;;;;;;4.78;3.47;;;;;;;10.99;79.18;101321.63;5039798;28;20648;-87
2024/01/06 05:21:41;;;;;;;4.25;3.10;;;;;;;11.27;79.44;101378.19;5046882;28;20067;-87
2024/01/06 05:24:07;;;;;;;3.78;3.03;;;;;;;11.12;79.12;101357.25;5025430;28;20048;-88
2024/01/06 05:26:33;;;;;;;3.83;3.08;;;;;;;11.08;79.15;101346.50;5032588;28;20020;-88
2024/01/06 05:28:58;;;;;;;3.58;3.10;;;;;;;11.34;79.60;101395.16;5024429;28;20490;-88
2024/01/06 05:31:25;;;;;;;4.03;3.38;;;;;;;11.11;79.26;101352.84;5047157;28;20024;-87
2024/01/06 05:33:50;;;;;;;;;;;;;;;11.35;79.18;101394.34;5043055;28;20028;-88
2024/01/06 05:36:21;;;;;;;3.67;3.08;;;;;;;11.12;79.35;101357.25;5031449;28;20352;-89
2024/01/06 05:38:46;;;;;;;5.75;3.53;;;;;;;11.11;79.00;101362.38;5035903;28;20036;-88
2024/01/06 05:41:13;;;;;;;4.20;3.15;;;;;;;11.33;79.59;101407.31;5059478;28;20066;-87
2024/01/06 05:43:40;;;;;;;3.45;3.00;;;;;;;11.17;79.51;101375.81;5043835;28;20112;-87
2024/01/06 05:46:07;;;;;;;4.82;3.38;;;;;;;10.99;79.42;101341.63;5073050;28;20533;-88
2024/01/06 05:48:33;;;;;;;3.65;2.85;;;;;;;11.06;79.31;101356.88;5072985;28;20443;-87
2024/01/06 05:50:59;;;;;;;4.22;3.25;;;;;;;11.11;79.53;101372.81;5068762;28;20032;-87
2024/01/06 05:53:24;;;;;;;3.83;3.22;;;;;;;11.17;79.38;101379.31;5066232;28;20503;-87
2024/01/06 05:55:54;;;;;;;3.63;2.95;;;;;;;11.10;79.46;101363.19;5086115;28;20024;-87
2024/01/06 05:58:20;;;;;;;3.53;3.22;;;;;;;11.22;79.73;101392.72;5075686;28;20028;-87
2024/01/06 06:00:46;;;;;;;4.38;3.10;;;;;;;11.21;79.48;101390.88;5083339;28;20028;-87
2024/01/06 06:03:12;;;;;;;3.85;3.00;;;;;;;11.32;79.36;101409.84;5085687;28;20540;-85
2024/01/06 06:05:38;;;;;;;4.25;3.10;;;;;;;11.05;79.61;101365.53;5087553;28;20036;-84
2024/01/06 06:08:05;;;;;;;3.92;3.25;;;;;;;11.14;79.58;101371.31;5085371;28;20102;-86
2024/01/06 06:10:40;;;;;;;3.75;3.35;;;;;;;11.27;79.74;101395.59;5077969;28;20032;-85
2024/01/06 06:13:10;;;;;;;4.43;3.13;;;;;;;11.00;79.41;101354.75;5080410;28;20112;-85
2024/01/06 06:15:36;;;;;;;3.33;2.90;;;;;;;11.21;79.39;101388.28;5069799;28;20305;-84
2024/01/06 06:18:02;;;;;;;4.45;3.25;;;;;;;11.09;79.42;101361.38;5076771;28;20032;-85
2024/01/06 06:20:28;;;;;;;3.67;3.25;;;;;;;10.81;79.30;101320.47;5076755;28;20028;-89
2024/01/06 06:22:53;;;;;;;3.95;3.13;;;;;;;10.99;79.53;101354.69;5067307;28;20028;-89
2024/01/06 06:25:19;;;;;;;4.68;3.35;;;;;;;10.83;79.40;101321.47;5086725;28;20024;-89
2024/01/06 06:27:45;;;;;;;4.28;3.28;;;;;;;10.94;79.38;101350.88;5081367;28;20066;-88
2024/01/06 06:30:11;;;;;;;3.78;2.88;;;;;;;11.10;79.33;101369.31;5090730;28;20058;-89
2024/01/06 06:32:37;;;;;;;4.63;3.55;;;;;;;11.09;79.32;101366.59;5072744;28;20043;-88
2024/01/06 06:35:05;;;;;;;3.95;3.17;;;;;;;11.24;79.62;101401.53;5078803;28;20028;-87
2024/01/06 06:37:31;;;;;;;3.42;3.10;;;;;;;11.24;79.57;101391.09;5079561;28;20043;-86
2024/01/06 06:39:57;;;;;;;;;;;;;;;11.28;79.48;101385.25;5078959;28;20035;-85
2024/01/06 06:42:22;;;;;;;4.25;3.20;;;;;;;11.22;79.57;101387.47;5081417;28;19915;-86
2024/01/06 06:44:48;;;;;;;4.60;3.17;;;;;;;11.21;79.52;101394.38;5086809;28;20036;-88
2024/01/06 06:47:14;;;;;;;3.40;2.85;;;;;;;11.13;79.50;101360.75;5071321;28;20032;-88
2024/01/06 06:49:40;;;;;;;4.28;3.05;;;;;;;10.76;79.21;101311.47;5080150;28;20063;-89
2024/01/06 06:52:07;;;;;;;3.50;2.90;;;;;;;10.98;79.56;101345.03;5066655;28;20059;-88
2024/01/06 06:54:32;;;;;;;11.65;8.30;;;;;;;11.01;77.87;101353.09;5066661;28;20055;-89
2024/01/06 06:56:58;;;;;;;11.38;7.53;;;;;;;11.08;77.39;101364.81;5069706;28;20066;-89
2024/01/06 06:59:25;;;;;;;12.48;6.18;;;;;;;11.06;77.98;101346.41;5083590;28;20028;-89
2024/01/06 07:01:51;;;;;;;10.07;5.45;;;;;;;11.15;78.60;101366.97;5079421;28;20039;-90
2024/01/06 07:04:16;;;;;;;8.30;5.65;;;;;;;11.16;78.46;101371.41;5084314;28;20036;-89
2024/01/06 07:06:42;;;;;;;7.68;4.93;;;;;;;11.19;78.90;101380.31;5066717;28;20119;-89
2024/01/06 07:09:08;;;;;;;6.97;4.53;;;;;;;11.08;78.77;101354.34;5071808;28;20530;-88
2024/01/06 07:11:35;;;;;;;9.55;5.20;;;;;;;11.11;78.80;101358.06;5080062;28;20118;-88
2024/01/06 07:14:01;;;;;;;7.05;5.05;;;;;;;10.98;78.85;101327.66;5068410;28;20532;-87
2024/01/06 07:16:27;;;;;;;6.13;4.60;;;;;;;11.20;78.95;101363.84;5087352;28;20173;-89
2024/01/06 07:18:53;;;;;;;7.53;4.95;;;;;;;10.75;78.73;101293.97;5080540;28;20068;-89
2024/01/06 07:21:18;;;;;;;8.68;5.07;;;;;;;10.91;78.85;101329.78;5062397;28;20195;-89
2024/01/06 07:23:44;;;;;;;6.85;4.68;;;;;;;11.10;79.15;101360.59;5070478;28;20505;-89
2024/01/06 07:26:10;;;;;;;6.85;4.60;;;;;;;11.09;78.96;101357.06;5071230;28;21593;-88
2024/01/06 07:28:36;;;;;;;7.72;4.97;;;;;;;11.13;79.27;101369.53;5062971;28;20036;-88
2024/01/06 07:31:02;;;;;;;8.10;4.85;;;;;;;10.96;78.91;101333.59;5077711;28;20473;-87
2024/01/06 07:33:28;;;;;;;7.03;4.95;;;;;;;10.84;78.78;101311.91;5076008;28;20212;-86
2024/01/06 07:35:53;;;;;;;;;;;;;;;11.27;78.99;101382.53;5084117;28;20075;-88
2024/01/06 07:38:19;;;;;;;6.43;4.55;;;;;;;11.07;79.09;101348.22;5079796;28;19916;-87
2024/01/06 07:40:45;;;;;;;5.85;4.10;;;;;;;11.12;78.64;101356.34;5069958;28;20071;-89
2024/01/06 07:43:10;;;;;;;7.85;4.65;;;;;;;10.85;79.38;101306.78;5079157;28;20032;-88
2024/01/06 07:45:36;;;;;;;6.82;4.47;;;;;;;11.05;78.98;101339.41;5069985;28;20060;-87
2024/01/06 07:48:02;;;;;;;6.47;4.90;;;;;;;10.97;78.89;101328.47;5075173;28;20035;-87
2024/01/06 07:50:28;;;;;;;6.43;4.70;;;;;;;11.19;79.08;101364.63;5070641;28;20024;-86
2024/01/06 07:52:54;;;;;;;;;;;;;;;11.20;79.32;101373.41;5075056;28;20016;-87
2024/01/06 07:55:20;;;;;;;6.18;4.47;;;;;;;11.13;79.38;101361.69;5071948;28;19923;-87
2024/01/06 07:57:46;;;;;;;7.93;4.43;;;;;;;11.20;79.01;101371.69;5063551;28;20028;-87
2024/01/06 08:00:14;;;;;;;8.00;6.07;;;;;;;11.02;78.77;101344.41;5077404;28;20039;-86
2024/01/06 08:02:41;;;;;;;7.72;4.80;;;;;;;10.75;78.90;101291.34;5076887;28;20082;-86
2024/01/06 08:05:07;;;;;;;7.43;5.05;;;;;;;10.93;79.11;101329.06;5071649;28;20036;-86
2024/01/06 08:07:33;;;;;;;7.10;4.95;;;;;;;10.95;78.97;101329.19;5059601;28;20501;-85
2024/01/06 08:09:58;;;;;;;6.72;4.63;;;;;;;11.00;78.61;101333.84;5074104;28;20024;-86
2024/01/06 08:12:24;;;;;;;6.65;4.90;;;;;;;10.82;78.80;101283.09;5079752;28;20551;-88
2024/01/06 08:14:50;;;;;;;8.02;5.07;;;;;;;10.87;78.65;101301.66;5069676;28;20090;-88
2024/01/06 08:17:17;;;;;;;;;;;;;;;11.35;78.51;101365.59;5067348;28;20020;-91
2024/01/06 08:19:50;;;;;;;7.88;4.80;;;;;;;11.32;78.71;101360.16;5059005;28;19916;-89
2024/01/06 08:22:18;;;;;;;6.15;4.50;;;;;;;11.25;78.52;101339.69;5057751;28;20484;-92
2024/01/06 08:24:50;;;;;;;6.13;4.22;;;;;;;11.35;78.83;101357.75;5042556;28;20039;-94
2024/01/06 08:27:21;;;;;;;7.00;4.45;;;;;;;11.35;78.90;101353.41;5065584;28;20028;-93
2024/01/06 08:29:47;;;;;;;8.75;4.40;;;;;;;10.87;79.00;101263.38;5070619;28;20540;-87
2024/01/06 08:32:14;;;;;;;6.03;4.60;;;;;;;11.00;78.70;101285.91;5068894;28;20035;-87
2024/01/06 08:34:40;;;;;;;5.25;4.20;;;;;;;11.43;78.67;101339.88;5073583;28;20047;-86
2024/01/06 08:37:06;;;;;;;6.57;4.38;;;;;;;11.26;78.60;101303.19;5086638;28;20028;-87
2024/01/06 08:39:32;;;;;;;5.40;3.92;;;;;;;11.17;78.34;101293.06;5083778;28;20032;-88
2024/01/06 08:41:58;;;;;;;5.70;3.83;;;;;;;11.15;78.77;101278.09;5075575;28;20020;-87
2024/01/06 08:44:23;;;;;;;;;;;;;;;11.49;78.47;101338.53;5082335;28;20118;-86
2024/01/06 08:46:51;;;;;;;5.63;3.97;;;;;;;11.45;78.56;101338.25;5029552;28;20150;-88
2024/01/06 08:49:17;;;;;;;5.15;3.83;;;;;;;11.27;78.84;101301.47;5058167;28;20040;-88
2024/01/06 08:51:43;;;;;;;6.35;4.05;;;;;;;11.42;79.42;101331.13;5038656;28;20025;-88
2024/01/06 08:54:09;;;;;;;8.43;4.35;;;;;;;11.02;79.28;101247.72;5049462;28;20417;-86
2024/01/06 08:56:34;;;;;;;5.80;3.80;;;;;;;11.32;79.36;101305.25;5072550;28;20028;-87
2024/01/06 08:59:00;;;;;;;7.43;4.18;;;;;;;11.16;79.06;101267.75;5038737;28;20024;-87
2024/01/06 09:01:26;;;;;;;8.02;4.40;;;;;;;11.37;78.84;101298.59;5051620;28;20070;-88
2024/01/06 09:03:53;;;;;;;5.60;4.10;;;;;;;11.17;79.29;101260.78;5034440;28;20043;-87
2024/01/06 09:06:18;;;;;;;8.48;4.30;;;;;;;11.41;79.10;101283.16;5050098;28;20039;-88
2024/01/06 09:08:44;;;;;;;7.85;4.30;;;;;;;11.17;79.15;101251.22;5070731;28;20020;-88
2024/01/06 09:11:10;;;;;;;7.65;4.40;;;;;;;11.34;79.49;101267.03;5070867;28;20036;-88
2024/01/06 09:13:35;;;;;;;7.40;4.00;;;;;;;11.02;79.58;101213.75;5034405;28;20430;-87
2024/01/06 09:16:01;;;;;;;8.15;4.15;;;;;;;11.35;79.69;101258.38;5023442;28;20040;-86
2024/01/06 09:18:28;;;;;;;7.30;4.35;;;;;;;11.51;79.93;101275.84;5061641;28;20029;-87
2024/01/06 09:20:53;;;;;;;7.40;4.20;;;;;;;11.45;79.70;101260.72;5054584;28;20037;-87
2024/01/06 09:23:20;;;;;;;6.82;4.30;;;;;;;11.37;79.84;101230.63;5034931;28;20032;-89
2024/01/06 09:25:49;;;;;;;9.73;4.40;;;;;;;11.56;80.02;101253.50;5017659;28;20073;-87
2024/01/06 09:28:15;;;;;;;7.70;3.88;;;;;;;11.51;79.85;101231.41;5035575;28;20032;-88
2024/01/06 09:30:44;;;;;;;8.85;4.20;;;;;;;11.40;79.53;101199.41;5032971;28;20032;-88
2024/01/06 09:33:10;;;;;;;8.65;4.30;;;;;;;11.28;80.29;101183.94;5049249;28;20025;-89
2024/01/06 09:35:36;;;;;;;8.73;4.55;;;;;;;11.76;80.40;101267.72;5068680;28;20036;-88
2024/01/06 09:38:02;;;;;;;12.55;4.60;;;;;;;11.80;81.22;101270.59;5071416;28;20028;-88
2024/01/06 09:40:31;;;;;;;10.10;4.28;;;;;;;11.56;80.66;101216.88;5057273;28;20032;-88
2024/01/06 09:42:57;;;;;;;9.27;4.13;;;;;;;11.42;80.50;101166.38;5034083;28;20644;-87
2024/01/06 09:45:23;;;;;;;12.27;4.40;;;;;;;11.51;81.06;101186.94;5064605;28;20048;-88
2024/01/06 09:47:50;;;;;;;10.32;4.20;;;;;;;11.49;80.27;101179.00;5067979;28;20028;-86
2024/01/06 09:50:19;;;;;;;8.75;4.20;;;;;;;11.90;81.32;101234.53;5079125;28;20028;-87
2024/01/06 09:52:52;;;;;;;12.77;4.95;;;;;;;11.50;80.86;101169.47;5070799;28;20025;-87
2024/01/06 09:55:18;;;;;;;12.02;4.35;;;;;;;11.38;81.34;101138.25;5063708;28;20111;-87
2024/01/06 09:57:45;;;;;;;9.38;4.55;;;;;;;11.92;81.15;101233.78;5087859;28;20028;-86
2024/01/06 10:00:11;;;;;;;12.90;4.65;;;;;;;11.76;81.43;101208.44;5078467;28;20376;-87
2024/01/06 10:02:37;;;;;;;12.38;4.93;;;;;;;11.45;81.76;101137.81;5069381;28;20040;-88
2024/01/06 10:05:04;;;;;;;8.48;4.63;;;;;;;11.50;81.55;101145.91;5083905;28;20029;-86
2024/01/06 10:07:30;;;;;;;11.93;5.07;;;;;;;11.45;82.26;101135.19;5069683;28;20033;-87
2024/01/06 10:09:56;;;;;;;12.77;5.03;;;;;;;11.78;83.68;101193.72;5069643;28;20085;-86
2024/01/06 10:12:25;;;;;;;11.85;4.80;;;;;;;12.00;82.31;101219.41;5089547;28;20711;-86
2024/01/06 10:14:52;;;;;;;12.57;5.05;;;;;;;11.80;82.34;101183.34;5089665;28;20016;-87
2024/01/06 10:17:21;;;;;;;10.32;4.97;;;;;;;11.67;83.29;101152.97;5083810;28;20036;-88
2024/01/06 10:19:49;;;;;;;10.20;4.72;;;;;;;11.87;83.57;101184.56;5079025;28;20020;-86
2024/01/06 10:22:15;;;;;;;11.85;4.75;;;;;;;11.79;83.77;101160.63;5076454;28;20028;-87
2024/01/06 10:24:41;;;;;;;9.95;4.32;;;;;;;12.02;83.34;101195.91;5075136;28;20108;-87
2024/01/06 10:27:08;;;;;;;9.55;5.40;;;;;;;11.53;83.42;101112.06;5074054;28;20072;-86
2024/01/06 10:29:34;;;;;;;12.77;5.00;;;;;;;12.02;83.70;101194.22;5081203;28;20062;-87
2024/01/06 10:32:00;;;;;;;9.23;4.68;;;;;;;11.85;84.21;101160.94;5069776;28;20446;-87
2024/01/06 10:34:26;;;;;;;12.75;5.63;;;;;;;11.51;84.16;101105.84;5079387;28;20053;-88
2024/01/06 10:36:52;;;;;;;12.40;4.68;;;;;;;11.72;84.79;101150.63;5082404;28;20610;-87
2024/01/06 10:39:19;;;;;;;10.93;5.22;;;;;;;12.02;83.30;101183.75;5069632;28;20090;-88
2024/01/06 10:41:48;;;;;;;9.32;4.65;;;;;;;12.02;83.44;101175.91;5088394;28;20020;-87
2024/01/06 10:44:17;;;;;;;11.77;5.10;;;;;;;11.96;83.70;101156.34;5083883;28;20032;-86
2024/01/06 10:46:45;;;;;;;12.10;4.97;;;;;;;12.05;83.99;101169.03;5040889;28;20032;-88
2024/01/06 10:49:11;;;;;;;12.43;5.60;;;;;;;12.04;84.40;101165.50;5046044;28;21474;-87
2024/01/06 10:51:40;;;;;;;;;;;;;;;12.07;83.77;101163.06;5040895;28;20066;-89
2024/01/06 10:54:05;;;;;;;8.88;4.97;;;;;;;11.61;84.33;101089.84;5045410;28;19923;-88
2024/01/06 10:56:37;;;;;;;13.18;5.13;;;;;;;12.06;84.64;101153.38;5046707;28;20402;-87
2024/01/06 10:59:03;;;;;;;13.50;5.55;;;;;;;12.02;84.79;101136.63;5038726;28;20025;-88
2024/01/06 11:01:29;;;;;;;10.15;5.00;;;;;;;11.85;84.63;101097.25;5063979;28;20605;-87
2024/01/06 11:03:57;;;;;;;11.10;5.10;;;;;;;11.93;84.73;101107.34;5035864;28;20561;-89
2024/01/06 11:06:24;;;;;;;11.10;4.88;;;;;;;11.73;85.24;101068.72;5034850;28;20024;-88
2024/01/06 11:09:02;;;;;;;10.23;4.78;;;;;;;12.06;85.37;101127.22;5025433;28;20437;-87
2024/01/06 11:11:28;;;;;;;11.07;4.90;;;;;;;11.94;85.54;101103.91;5023189;28;20033;-88
2024/01/06 11:14:24;;;;;;;11.73;5.07;;;;;;;11.98;84.95;101091.88;5042347;28;20387;-88
2024/01/06 11:16:50;;;;;;;12.32;5.00;;;;;;;12.11;85.24;101124.88;5031948;28;20041;-88
2024/01/06 11:19:41;;;;;;;8.80;4.82;;;;;;;12.00;85.36;101092.84;5037556;28;20029;-88
2024/01/06 11:22:36;;;;;;;14.02;5.20;;;;;;;12.09;84.15;101105.56;5035993;28;20041;-87
2024/01/06 11:25:07;;;;;;;13.23;5.30;;;;;;;11.96;84.93;101077.84;5041972;28;20048;-86